createdAt,value
2019-05-06T00:00:34.727Z,54.58
2019-05-06T00:03:09.171Z,68.22
2019-05-06T00:05:43.662Z,58.13
2019-05-06T00:08:17.926Z,56.05
2019-05-06T00:10:54.092Z,57.25
2019-05-06T00:13:27.858Z,71.60
2019-05-06T00:16:03.888Z,73.57
2019-05-06T00:18:37.999Z,60.05
2019-05-06T00:21:14.624Z,58.33
2019-05-06T00:23:49.614Z,61.08
2019-05-06T00:26:34.424Z,70.45
2019-05-06T00:29:11.257Z,67.30
2019-05-06T00:31:45.709Z,77.78
2019-05-06T00:34:21.235Z,77.95
2019-05-06T00:36:57.308Z,69.42
2019-05-06T00:39:56.940Z,75.32
2019-05-06T00:42:56.878Z,82.55
2019-05-06T00:46:00.108Z,53.35
2019-05-06T00:49:36.996Z,49.50
2019-05-06T00:55:39.657Z,56.63
2019-05-06T01:02:10.749Z,69.22
2019-05-06T01:04:54.486Z,46.98
2019-05-06T01:10:39.482Z,41.63
2019-05-06T01:13:24.179Z,58.38
2019-05-06T01:15:59.427Z,27.07
2019-05-06T01:18:34.017Z,28.15
2019-05-06T01:21:14.774Z,26.80
2019-05-06T01:23:49.333Z,22.32
2019-05-06T01:26:24.286Z,23.87
2019-05-06T01:28:59.043Z,20.62
2019-05-06T01:31:42.288Z,31.17
2019-05-06T01:34:09.151Z,30.97
2019-05-06T01:36:43.875Z,31.50
2019-05-06T01:39:19.595Z,32.45
2019-05-06T01:42:01.380Z,49.90
2019-05-06T01:44:36.050Z,65.10
2019-05-06T01:47:11.979Z,56.30
2019-05-06T01:49:46.450Z,49.40
2019-05-06T01:52:20.798Z,32.50
2019-05-06T01:54:55.622Z,27.80
2019-05-06T01:57:30.223Z,24.90
2019-05-06T02:00:06.858Z,80.65
2019-05-06T02:02:54.563Z,46.13
2019-05-06T02:05:34.380Z,25.48
2019-05-06T02:08:08.858Z,73.35
2019-05-06T02:10:43.562Z,38.15
2019-05-06T02:13:18.119Z,123.20
2019-05-06T02:15:54.628Z,48.73
2019-05-06T02:18:28.351Z,46.40
2019-05-06T02:21:05.489Z,61.18
2019-05-06T02:23:46.625Z,49.40
2019-05-06T02:26:21.187Z,27.52
2019-05-06T02:28:58.929Z,21.42
2019-05-06T02:31:48.378Z,22.35
2019-05-06T02:34:25.407Z,22.15
2019-05-06T02:37:17.276Z,13.50
2019-05-06T02:39:53.326Z,17.05
2019-05-06T02:42:28.605Z,16.35
2019-05-06T02:45:04.015Z,15.55
2019-05-06T02:47:43.037Z,17.00
2019-05-06T02:50:26.937Z,10.58
2019-05-06T02:53:02.787Z,10.90
2019-05-06T02:55:37.138Z,12.65
2019-05-06T02:58:14.595Z,10.40
2019-05-06T03:00:47.587Z,11.05
2019-05-06T03:03:23.246Z,33.45
2019-05-06T03:06:06.802Z,15.30
2019-05-06T03:08:43.680Z,10.15
2019-05-06T03:11:18.511Z,10.32
2019-05-06T03:13:54.597Z,12.18
2019-05-06T03:16:29.203Z,22.55
2019-05-06T03:19:04.131Z,9.40
2019-05-06T03:21:58.379Z,6.35
2019-05-06T03:24:34.230Z,7.67
2019-05-06T03:27:08.637Z,7.90
2019-05-06T03:29:44.500Z,7.22
2019-05-06T03:32:24.760Z,8.73
2019-05-06T03:35:16.374Z,7.08
2019-05-06T03:37:33.288Z,7.00
2019-05-06T03:40:05.743Z,8.40
2019-05-06T03:42:42.462Z,7.53
2019-05-06T03:45:23.751Z,12.15
2019-05-06T03:48:12.993Z,10.03
2019-05-06T03:50:46.733Z,11.73
2019-05-06T03:53:23.166Z,9.35
2019-05-06T03:55:58.455Z,9.43
2019-05-06T03:58:35.772Z,13.68
2019-05-06T04:01:12.928Z,10.82
2019-05-06T04:03:51.351Z,7.05
2019-05-06T04:06:24.149Z,7.33
2019-05-06T04:08:57.582Z,11.68
2019-05-06T04:11:35.866Z,11.08
2019-05-06T04:14:20.511Z,7.78
2019-05-06T04:17:03.282Z,10.63
2019-05-06T04:19:39.370Z,8.73
2019-05-06T04:22:27.453Z,9.48
2019-05-06T04:25:13.792Z,7.08
2019-05-06T04:27:57.980Z,13.53
2019-05-06T04:30:33.416Z,7.55
2019-05-06T04:33:08.009Z,10.78
2019-05-06T04:35:43.030Z,7.75
2019-05-06T04:38:17.539Z,4.83
2019-05-06T04:40:54.049Z,6.15
2019-05-06T04:43:29.284Z,9.45
2019-05-06T04:46:05.937Z,7.53
2019-05-06T04:48:43.183Z,70.83
2019-05-06T04:51:36.760Z,72.70
2019-05-06T04:54:13.339Z,40.75
2019-05-06T04:56:49.471Z,291.90
2019-05-06T04:59:24.299Z,94.45
2019-05-06T05:01:59.084Z,48.50
2019-05-06T05:04:37.754Z,32.60
2019-05-06T05:07:13.073Z,117.37
2019-05-06T05:09:49.537Z,58.78
2019-05-06T05:12:28.230Z,39.50
2019-05-06T05:15:17.375Z,25.37
2019-05-06T05:18:09.598Z,25.30
2019-05-06T05:20:47.051Z,9.03
2019-05-06T05:23:22.903Z,59.65
2019-05-06T05:26:02.709Z,16.10
2019-05-06T05:28:36.463Z,11.80
2019-05-06T05:31:12.300Z,12.00
2019-05-06T05:33:49.535Z,7.47
2019-05-06T05:36:25.573Z,13.40
2019-05-06T05:39:00.327Z,17.05
2019-05-06T05:41:37.621Z,10.08
2019-05-06T05:44:16.429Z,10.58
2019-05-06T05:46:52.521Z,7.60
2019-05-06T05:49:45.366Z,5.33
2019-05-06T05:52:22.158Z,5.30
2019-05-06T05:54:57.486Z,13.68
2019-05-06T05:57:32.799Z,6.60
2019-05-06T06:00:12.788Z,7.60
2019-05-06T06:02:49.107Z,10.35
2019-05-06T06:05:23.731Z,19.27
2019-05-06T06:07:58.260Z,21.93
2019-05-06T06:10:34.099Z,9.15
2019-05-06T06:13:09.737Z,9.10
2019-05-06T06:15:48.841Z,7.00
2019-05-06T06:18:33.357Z,3.40
2019-05-06T06:21:28.122Z,5.83
2019-05-06T06:24:17.302Z,2.80
2019-05-06T06:26:56.570Z,2.90
2019-05-06T06:29:34.611Z,4.80
2019-05-06T06:32:13.742Z,3.77
2019-05-06T06:35:07.552Z,3.15
2019-05-06T06:37:33.221Z,2.90
2019-05-06T06:40:14.435Z,2.72
2019-05-06T06:42:52.313Z,7.80
2019-05-06T06:45:26.001Z,5.05
2019-05-06T06:48:03.142Z,3.05
2019-05-06T06:50:49.257Z,6.60
2019-05-06T06:57:08.683Z,13.53
2019-05-06T07:05:56.323Z,2.25
2019-05-06T07:08:36.561Z,4.72
2019-05-06T07:11:06.769Z,11.85
2019-05-06T07:13:43.192Z,9.58
2019-05-06T07:16:17.402Z,34.35
2019-05-06T07:18:53.129Z,27.87
2019-05-06T07:21:34.279Z,16.10
2019-05-06T07:24:13.099Z,5.15
2019-05-06T07:26:48.329Z,12.10
2019-05-06T07:29:26.657Z,14.23
2019-05-06T07:31:59.979Z,19.70
2019-05-06T07:34:34.714Z,6.00
2019-05-06T07:37:09.485Z,7.30
2019-05-06T07:39:44.172Z,5.15
2019-05-06T07:42:22.283Z,4.03
2019-05-06T07:44:59.552Z,9.00
2019-05-06T07:47:35.625Z,5.05
2019-05-06T07:50:12.856Z,5.42
2019-05-06T07:52:47.637Z,7.45
2019-05-06T07:55:23.506Z,24.32
2019-05-06T07:57:58.816Z,22.30
2019-05-06T08:00:34.471Z,13.45
2019-05-06T08:03:14.052Z,9.55
2019-05-06T08:05:57.874Z,22.00
2019-05-06T08:08:23.114Z,23.05
2019-05-06T08:11:02.484Z,16.05
2019-05-06T08:13:34.562Z,14.10
2019-05-06T08:16:10.163Z,24.02
2019-05-06T08:18:44.936Z,7.55
2019-05-06T08:21:22.333Z,5.08
2019-05-06T08:23:57.151Z,8.30
2019-05-06T08:26:33.110Z,2.62
2019-05-06T08:29:07.693Z,4.30
2019-05-06T08:31:43.336Z,3.52
2019-05-06T08:34:18.025Z,5.03
2019-05-06T08:36:54.645Z,4.53
2019-05-06T08:39:29.078Z,3.10
2019-05-06T08:42:03.431Z,4.67
2019-05-06T08:44:38.250Z,3.85
2019-05-06T08:47:13.384Z,5.92
2019-05-06T08:50:02.743Z,6.17
2019-05-06T08:52:38.606Z,5.05
2019-05-06T08:55:13.265Z,1.95
2019-05-06T08:57:48.016Z,2.87
2019-05-06T09:00:23.811Z,5.20
2019-05-06T09:02:58.486Z,3.85
2019-05-06T09:05:33.083Z,5.62
2019-05-06T09:08:07.624Z,7.22
2019-05-06T09:10:43.265Z,5.67
2019-05-06T09:13:18.780Z,8.53
2019-05-06T09:15:53.227Z,5.53
2019-05-06T09:18:28.235Z,3.55
2019-05-06T09:21:06.134Z,5.83
2019-05-06T09:23:42.358Z,6.03
2019-05-06T09:26:22.334Z,5.45
2019-05-06T09:28:57.575Z,4.47
2019-05-06T09:31:46.527Z,4.37
2019-05-06T09:34:23.350Z,4.20
2019-05-06T09:36:59.262Z,9.33
2019-05-06T09:39:33.623Z,3.17
2019-05-06T09:42:08.759Z,7.00
2019-05-06T09:44:43.211Z,8.20
2019-05-06T09:47:33.027Z,4.03
2019-05-06T09:50:08.674Z,8.30
2019-05-06T09:52:43.898Z,7.95
2019-05-06T09:55:25.785Z,8.53
2019-05-06T09:58:03.415Z,6.58
2019-05-06T10:00:42.725Z,8.55
2019-05-06T10:03:15.920Z,5.33
2019-05-06T10:05:50.266Z,5.55
2019-05-06T10:08:24.648Z,4.83
2019-05-06T10:10:59.901Z,7.03
2019-05-06T10:13:34.587Z,4.40
2019-05-06T10:16:08.983Z,4.65
2019-05-06T10:18:44.786Z,4.15
2019-05-06T10:21:19.500Z,5.20
2019-05-06T10:23:53.915Z,6.22
2019-05-06T10:26:29.299Z,5.67
2019-05-06T10:29:08.560Z,7.67
2019-05-06T10:31:52.411Z,9.78
2019-05-06T10:34:43.301Z,8.20
2019-05-06T10:40:56.125Z,8.23
2019-05-06T10:43:49.144Z,7.55
2019-05-06T10:46:31.225Z,5.80
2019-05-06T10:49:07.903Z,3.92
2019-05-06T10:51:46.869Z,8.68
2019-05-06T10:54:22.898Z,10.60
2019-05-06T10:57:05.951Z,7.25
2019-05-06T10:59:40.397Z,5.42
2019-05-06T11:02:25.251Z,6.33
2019-05-06T11:05:02.521Z,6.87
2019-05-06T11:07:35.613Z,5.95
2019-05-06T11:10:23.394Z,7.60
2019-05-06T11:12:46.960Z,8.95
2019-05-06T11:15:23.334Z,3.83
2019-05-06T11:17:58.032Z,9.88
2019-05-06T11:20:33.525Z,5.00
2019-05-06T11:23:08.335Z,7.55
2019-05-06T11:25:43.491Z,8.03
2019-05-06T11:28:38.491Z,12.30
2019-05-06T11:31:17.453Z,6.35
2019-05-06T11:34:00.411Z,7.75
2019-05-06T11:36:55.628Z,9.15
2019-05-06T11:39:32.138Z,7.03
2019-05-06T11:42:23.709Z,10.35
2019-05-06T11:44:43.965Z,7.72
2019-05-06T11:47:18.668Z,11.10
2019-05-06T11:49:56.372Z,9.73
2019-05-06T11:52:31.173Z,16.60
2019-05-06T11:55:05.911Z,16.80
2019-05-06T11:57:44.702Z,15.75
2019-05-06T12:00:23.900Z,9.65
2019-05-06T12:02:59.420Z,10.53
2019-05-06T12:05:35.185Z,14.47
2019-05-06T12:08:13.673Z,11.20
2019-05-06T12:10:48.122Z,12.88
2019-05-06T12:13:22.998Z,12.10
2019-05-06T12:15:57.826Z,9.50
2019-05-06T12:18:34.688Z,5.20
2019-05-06T12:21:13.352Z,10.58
2019-05-06T12:23:47.137Z,6.15
2019-05-06T12:26:21.530Z,6.95
2019-05-06T12:28:56.038Z,7.95
2019-05-06T12:31:32.592Z,4.08
2019-05-06T12:34:06.298Z,3.80
2019-05-06T12:36:42.731Z,7.20
2019-05-06T12:39:25.461Z,6.80
2019-05-06T12:42:10.244Z,4.08
2019-05-06T12:44:48.897Z,4.67
2019-05-06T12:47:32.632Z,8.85
2019-05-06T12:50:07.408Z,4.70
2019-05-06T12:52:44.107Z,8.35
2019-05-06T12:55:24.282Z,4.15
2019-05-06T12:57:57.597Z,7.58
2019-05-06T13:00:34.556Z,6.12
2019-05-06T13:03:08.856Z,3.90
2019-05-06T13:05:45.394Z,7.95
2019-05-06T13:08:53.980Z,7.50
2019-05-06T13:11:16.463Z,9.03
2019-05-06T13:13:57.488Z,5.53
2019-05-06T13:16:27.286Z,5.08
2019-05-06T13:19:03.524Z,7.95
2019-05-06T13:21:38.054Z,5.03
2019-05-06T13:24:13.776Z,5.83
2019-05-06T13:26:49.050Z,6.35
2019-05-06T13:29:25.407Z,4.95
2019-05-06T13:32:01.984Z,4.47
2019-05-06T13:34:42.325Z,7.60
2019-05-06T13:37:23.499Z,4.10
2019-05-06T13:40:03.286Z,6.67
2019-05-06T13:42:42.512Z,8.25
2019-05-06T13:45:18.474Z,6.12
2019-05-06T13:47:55.072Z,5.90
2019-05-06T13:50:33.518Z,6.72
2019-05-06T13:53:14.668Z,6.62
2019-05-06T13:55:49.289Z,6.25
2019-05-06T13:58:26.814Z,5.22
2019-05-06T14:01:03.440Z,3.42
2019-05-06T14:03:39.059Z,4.45
2019-05-06T14:06:13.545Z,4.90
2019-05-06T14:08:50.431Z,7.55
2019-05-06T14:11:25.305Z,6.97
2019-05-06T14:13:59.855Z,13.78
2019-05-06T14:16:36.560Z,13.00
2019-05-06T14:19:13.170Z,6.05
2019-05-06T14:21:49.032Z,5.97
2019-05-06T14:24:24.305Z,8.53
2019-05-06T14:27:02.706Z,7.87
2019-05-06T14:29:45.699Z,6.47
2019-05-06T14:34:57.343Z,5.45
2019-05-06T14:40:33.033Z,6.20
2019-05-06T14:43:07.875Z,5.58
2019-05-06T14:45:48.991Z,4.62
2019-05-06T14:48:28.513Z,5.78
2019-05-06T14:51:18.140Z,5.50
2019-05-06T14:53:57.084Z,3.95
2019-05-06T14:56:47.681Z,4.95
2019-05-06T14:59:27.106Z,3.80
2019-05-06T15:02:06.710Z,5.12
2019-05-06T15:04:43.200Z,4.95
2019-05-06T15:07:17.292Z,4.58
2019-05-06T15:10:02.451Z,4.83
2019-05-06T15:12:29.490Z,3.17
2019-05-06T15:15:04.042Z,6.78
2019-05-06T15:17:38.865Z,6.50
2019-05-06T15:20:18.718Z,3.55
2019-05-06T15:22:58.691Z,3.90
2019-05-06T15:25:34.855Z,4.45
2019-05-06T15:28:10.183Z,5.42
2019-05-06T15:30:45.893Z,3.02
2019-05-06T15:33:27.687Z,2.75
2019-05-06T15:36:12.696Z,4.35
2019-05-06T15:38:48.177Z,5.55
2019-05-06T15:41:24.038Z,3.92
2019-05-06T15:44:03.533Z,3.92
2019-05-06T15:46:39.249Z,3.52
2019-05-06T15:49:16.170Z,2.62
2019-05-06T15:51:52.327Z,4.55
2019-05-06T15:54:27.958Z,4.08
2019-05-06T15:57:03.555Z,5.30
2019-05-06T15:59:41.241Z,5.92
2019-05-06T16:02:16.458Z,2.85
2019-05-06T16:04:55.210Z,3.98
2019-05-06T16:07:34.674Z,2.50
2019-05-06T16:10:22.583Z,3.45
2019-05-06T16:13:02.467Z,12.65
2019-05-06T16:15:37.044Z,4.37
2019-05-06T16:18:12.967Z,5.40
2019-05-06T16:20:49.940Z,3.12
2019-05-06T16:23:25.478Z,3.52
2019-05-06T16:25:59.939Z,4.87
2019-05-06T16:28:35.705Z,3.75
2019-05-06T16:31:18.301Z,3.12
2019-05-06T16:33:54.398Z,3.95
2019-05-06T16:36:32.189Z,3.80
2019-05-06T16:39:09.329Z,7.47
2019-05-06T16:41:46.521Z,6.62
2019-05-06T16:44:21.710Z,4.42
2019-05-06T16:46:58.357Z,4.47
2019-05-06T16:49:34.118Z,5.28
2019-05-06T16:52:09.759Z,3.98
2019-05-06T16:54:48.818Z,3.00
2019-05-06T16:57:24.449Z,4.33
2019-05-06T16:59:58.892Z,2.95
2019-05-06T17:02:37.655Z,2.98
2019-05-06T17:05:22.474Z,4.03
2019-05-06T17:07:59.369Z,4.20
2019-05-06T17:10:36.559Z,4.33
2019-05-06T17:13:12.701Z,3.27
2019-05-06T17:15:52.701Z,4.78
2019-05-06T17:18:26.797Z,3.47
2019-05-06T17:21:01.229Z,3.30
2019-05-06T17:23:36.909Z,4.83
2019-05-06T17:26:12.789Z,4.62
2019-05-06T17:29:02.567Z,5.97
2019-05-06T17:31:44.562Z,3.92
2019-05-06T17:34:29.200Z,7.10
2019-05-06T17:37:05.172Z,4.78
2019-05-06T17:39:39.968Z,7.10
2019-05-06T17:42:14.362Z,5.15
2019-05-06T17:44:48.856Z,5.42
2019-05-06T17:47:24.489Z,5.75
2019-05-06T17:49:59.037Z,6.35
2019-05-06T17:52:33.628Z,3.90
2019-05-06T17:55:11.983Z,6.95
2019-05-06T17:57:50.370Z,4.87
2019-05-06T18:00:24.869Z,4.78
2019-05-06T18:03:02.575Z,4.25
2019-05-06T18:05:37.583Z,5.35
2019-05-06T18:08:12.778Z,6.12
2019-05-06T18:10:47.323Z,4.58
2019-05-06T18:13:22.484Z,6.12
2019-05-06T18:15:56.896Z,6.70
2019-05-06T18:18:32.472Z,4.12
2019-05-06T18:21:06.852Z,4.45
2019-05-06T18:23:41.526Z,5.00
2019-05-06T18:26:16.011Z,5.40
2019-05-06T18:28:52.673Z,4.60
2019-05-06T18:31:27.304Z,5.62
2019-05-06T18:34:03.014Z,4.08
2019-05-06T18:36:37.672Z,6.15
2019-05-06T18:39:12.705Z,4.30
2019-05-06T18:41:47.256Z,6.55
2019-05-06T18:44:22.737Z,6.33
2019-05-06T18:46:57.568Z,4.65
2019-05-06T18:49:33.585Z,4.35
2019-05-06T18:52:07.947Z,4.80
2019-05-06T18:54:42.923Z,4.58
2019-05-06T18:57:17.562Z,4.62
2019-05-06T18:59:53.306Z,5.90
2019-05-06T19:02:27.573Z,6.08
2019-05-06T19:05:19.767Z,6.10
2019-05-06T19:07:56.180Z,4.22
2019-05-06T19:10:33.204Z,7.50
2019-05-06T19:13:08.761Z,5.15
2019-05-06T19:15:43.323Z,5.53
2019-05-06T19:18:17.838Z,4.90
2019-05-06T19:20:53.207Z,4.40
2019-05-06T19:23:28.172Z,6.75
2019-05-06T19:26:02.980Z,5.45
2019-05-06T19:28:37.672Z,6.87
2019-05-06T19:31:12.968Z,5.40
2019-05-06T19:33:47.893Z,7.08
2019-05-06T19:36:23.483Z,6.35
2019-05-06T19:38:58.284Z,4.58
2019-05-06T19:41:33.192Z,6.72
2019-05-06T19:44:08.000Z,5.58
2019-05-06T19:46:42.689Z,4.78
2019-05-06T19:49:17.177Z,6.67
2019-05-06T19:51:53.048Z,5.90
2019-05-06T19:54:27.717Z,6.35
2019-05-06T19:57:02.604Z,7.78
2019-05-06T19:59:37.293Z,6.08
2019-05-06T20:02:12.880Z,6.25
2019-05-06T20:04:48.821Z,5.95
2019-05-06T20:07:42.766Z,4.60
2019-05-06T20:10:18.852Z,5.15
2019-05-06T20:13:04.930Z,6.75
2019-05-06T20:15:43.634Z,6.28
2019-05-06T20:18:18.055Z,7.15
2019-05-06T20:20:53.305Z,5.22
2019-05-06T20:23:28.345Z,7.60
2019-05-06T20:26:02.934Z,4.35
2019-05-06T20:28:37.383Z,4.90
2019-05-06T20:31:12.117Z,4.58
2019-05-06T20:33:46.418Z,5.03
2019-05-06T20:36:22.586Z,6.37
2019-05-06T20:38:56.679Z,5.72
2019-05-06T20:41:33.567Z,8.73
2019-05-06T20:44:07.967Z,7.85
2019-05-06T20:46:44.542Z,5.75
2019-05-06T20:49:23.386Z,5.20
2019-05-06T20:52:00.399Z,5.03
2019-05-06T20:54:35.245Z,6.25
2019-05-06T20:57:12.094Z,6.00
2019-05-06T20:59:45.375Z,6.97
2019-05-06T21:02:25.216Z,6.83
2019-05-06T21:04:57.869Z,4.92
2019-05-06T21:07:32.457Z,6.03
2019-05-06T21:10:08.000Z,7.78
2019-05-06T21:12:42.901Z,6.33
2019-05-06T21:15:18.142Z,7.28
2019-05-06T21:17:52.554Z,6.10
2019-05-06T21:20:26.932Z,6.33
2019-05-06T21:23:02.315Z,6.92
2019-05-06T21:25:37.361Z,7.30
2019-05-06T21:28:12.168Z,8.43
2019-05-06T21:30:46.929Z,6.67
2019-05-06T21:33:22.117Z,5.78
2019-05-06T21:35:56.700Z,8.23
2019-05-06T21:38:32.663Z,6.97
2019-05-06T21:41:07.076Z,4.95
2019-05-06T21:43:47.063Z,6.42
2019-05-06T21:46:17.320Z,6.40
2019-05-06T21:48:52.967Z,8.50
2019-05-06T21:51:28.718Z,7.20
2019-05-06T21:54:03.146Z,7.08
2019-05-06T21:56:37.518Z,9.88
2019-05-06T21:59:12.880Z,6.70
2019-05-06T22:01:47.482Z,7.62
2019-05-06T22:04:23.171Z,6.67
2019-05-06T22:06:57.904Z,6.78
2019-05-06T22:09:32.487Z,8.60
2019-05-06T22:12:07.906Z,6.47
2019-05-06T22:14:43.476Z,7.12
2019-05-06T22:17:18.012Z,17.07
2019-05-06T22:19:52.519Z,51.55
2019-05-06T22:22:37.150Z,59.42
2019-05-06T22:25:12.690Z,58.80
2019-05-06T22:27:47.216Z,50.35
2019-05-06T22:30:23.834Z,38.25
2019-05-06T22:32:57.768Z,28.47
2019-05-06T22:35:32.542Z,24.27
2019-05-06T22:38:12.346Z,25.85
2019-05-06T22:40:47.310Z,26.07
2019-05-06T22:43:21.994Z,23.90
2019-05-06T22:45:56.510Z,21.35
2019-05-06T22:48:32.399Z,14.43
2019-05-06T22:51:06.925Z,15.72
2019-05-06T22:53:42.544Z,15.63
2019-05-06T22:56:18.052Z,23.40
2019-05-06T22:58:52.668Z,20.85
2019-05-06T23:01:35.360Z,16.25
2019-05-06T23:04:10.204Z,17.45
2019-05-06T23:06:44.569Z,14.38
2019-05-06T23:09:18.970Z,13.75
2019-05-06T23:11:53.406Z,16.87
2019-05-06T23:14:34.288Z,15.25
2019-05-06T23:17:05.160Z,24.02
2019-05-06T23:19:42.621Z,18.57
2019-05-06T23:22:16.199Z,31.87
2019-05-06T23:24:52.261Z,47.98
2019-05-06T23:27:26.342Z,28.75
2019-05-06T23:30:03.056Z,30.92
2019-05-06T23:32:36.901Z,30.15
2019-05-06T23:35:12.840Z,28.38
2019-05-06T23:38:23.030Z,23.05
2019-05-06T23:41:32.837Z,27.93
2019-05-06T23:44:46.075Z,28.62
2019-05-06T23:47:53.734Z,42.13
2019-05-06T23:51:05.270Z,178.70
2019-05-06T23:54:16.015Z,92.65
2019-05-06T23:56:48.745Z,88.45
2019-05-06T23:59:23.553Z,85.93
